createdAt,value
2023-02-16T00:01:26.173Z,0.70
2023-02-16T00:03:55.421Z,0.60
2023-02-16T00:06:24.906Z,0.60
2023-02-16T00:08:54.303Z,0.80
2023-02-16T00:11:45.000Z,0.80
2023-02-16T00:14:13.326Z,0.80
2023-02-16T00:16:41.876Z,0.90
2023-02-16T00:19:19.578Z,0.90
2023-02-16T00:21:49.913Z,1.10
2023-02-16T00:24:18.018Z,1.10
2023-02-16T00:26:46.297Z,1.00
2023-02-16T00:29:21.369Z,0.90
2023-02-16T00:31:49.681Z,0.40
2023-02-16T00:34:30.564Z,1.10
2023-02-16T00:37:01.366Z,0.80
2023-02-16T00:39:29.852Z,0.80
2023-02-16T00:42:00.682Z,0.70
2023-02-16T00:44:33.994Z,0.40
2023-02-16T00:47:04.837Z,1.10
2023-02-16T00:49:32.633Z,0.80
2023-02-16T00:52:02.205Z,1.00
2023-02-16T00:54:31.680Z,0.80
2023-02-16T00:56:59.841Z,0.90
2023-02-16T00:59:27.664Z,1.20
2023-02-16T01:01:57.246Z,1.20
2023-02-16T01:04:25.337Z,1.10
2023-02-16T01:07:10.815Z,1.10
2023-02-16T01:09:57.641Z,1.00
2023-02-16T01:12:25.384Z,1.20
2023-02-16T01:14:55.580Z,1.10
2023-02-16T01:17:24.230Z,1.00
2023-02-16T01:19:52.182Z,1.00
2023-02-16T01:22:19.896Z,1.00
2023-02-16T01:24:48.993Z,0.90
2023-02-16T01:27:16.698Z,0.80
2023-02-16T01:29:44.477Z,0.90
2023-02-16T01:32:13.384Z,0.80
2023-02-16T01:34:41.202Z,0.70
2023-02-16T01:37:15.348Z,0.80
2023-02-16T01:39:43.331Z,1.00
2023-02-16T01:42:24.661Z,0.90
2023-02-16T01:44:55.933Z,0.70
2023-02-16T01:47:34.477Z,0.60
2023-02-16T01:50:12.694Z,0.70
2023-02-16T01:52:44.494Z,0.40
2023-02-16T01:55:18.641Z,0.80
2023-02-16T01:57:50.638Z,0.80
2023-02-16T02:00:27.096Z,0.80
2023-02-16T02:03:17.376Z,0.50
2023-02-16T02:05:44.300Z,0.30
2023-02-16T02:08:20.751Z,0.30
2023-02-16T02:10:58.345Z,0.60
2023-02-16T02:13:33.679Z,0.60
2023-02-16T02:16:04.820Z,0.30
2023-02-16T02:18:32.736Z,0.50
2023-02-16T02:21:43.804Z,0.40
2023-02-16T02:24:48.419Z,0.20
2023-02-16T02:27:23.377Z,0.00
2023-02-16T02:30:21.283Z,0.30
2023-02-16T02:33:07.395Z,0.20
2023-02-16T02:35:44.945Z,0.40
2023-02-16T02:38:17.645Z,0.10
2023-02-16T02:40:55.734Z,0.10
2023-02-16T02:43:27.973Z,0.10
2023-02-16T02:46:00.460Z,0.30
2023-02-16T02:48:31.202Z,0.50
2023-02-16T02:51:14.424Z,-0.30
2023-02-16T02:53:48.040Z,0.10
2023-02-16T02:56:35.897Z,0.50
2023-02-16T02:59:26.755Z,0.20
2023-02-16T03:01:59.105Z,0.20
2023-02-16T03:04:32.086Z,0.10
2023-02-16T03:07:01.168Z,0.10
2023-02-16T03:09:29.357Z,0.10
2023-02-16T03:12:16.761Z,0.10
2023-02-16T03:14:50.944Z,0.10
2023-02-16T03:20:50.893Z,0.10
2023-02-16T03:23:36.145Z,0.10
2023-02-16T03:26:21.194Z,0.20
2023-02-16T03:29:08.136Z,0.10
2023-02-16T03:31:39.358Z,0.20
2023-02-16T03:34:07.951Z,0.20
2023-02-16T03:36:37.737Z,0.20
2023-02-16T03:39:06.443Z,0.50
2023-02-16T03:41:36.004Z,0.30
2023-02-16T03:44:03.879Z,0.70
2023-02-16T03:46:32.236Z,0.60
2023-02-16T03:49:01.311Z,0.80
2023-02-16T03:51:29.061Z,0.90
2023-02-16T03:53:56.804Z,0.60
2023-02-16T03:56:24.674Z,0.50
2023-02-16T03:58:52.615Z,0.50
2023-02-16T04:01:20.380Z,0.80
2023-02-16T04:03:48.151Z,0.50
2023-02-16T04:06:17.713Z,0.80
2023-02-16T04:08:45.501Z,0.80
2023-02-16T04:11:30.512Z,0.70
2023-02-16T04:13:58.215Z,0.50
2023-02-16T04:16:25.961Z,0.60
2023-02-16T04:18:53.765Z,0.50
2023-02-16T04:21:22.845Z,0.50
2023-02-16T04:23:50.617Z,0.40
2023-02-16T04:26:18.322Z,0.50
2023-02-16T04:28:46.054Z,0.30
2023-02-16T04:31:14.036Z,0.70
2023-02-16T04:33:41.865Z,0.60
2023-02-16T04:36:10.569Z,0.70
2023-02-16T04:38:39.591Z,0.70
2023-02-16T04:41:07.309Z,0.70
2023-02-16T04:43:35.307Z,0.70
2023-02-16T04:46:03.066Z,1.10
2023-02-16T04:48:30.801Z,0.70
2023-02-16T04:50:58.501Z,1.00
2023-02-16T04:53:26.358Z,1.00
2023-02-16T04:55:55.389Z,1.10
2023-02-16T04:58:23.150Z,0.90
2023-02-16T05:00:50.871Z,1.20
2023-02-16T05:03:18.608Z,1.10
2023-02-16T05:05:46.355Z,0.70
2023-02-16T05:08:14.028Z,0.80
2023-02-16T05:10:43.358Z,1.10
2023-02-16T05:13:30.155Z,1.10
2023-02-16T05:15:57.902Z,1.10
2023-02-16T05:18:25.676Z,0.70
2023-02-16T05:21:10.818Z,1.10
2023-02-16T05:23:38.982Z,0.90
2023-02-16T05:26:06.814Z,1.10
2023-02-16T05:28:35.935Z,1.10
2023-02-16T05:31:04.059Z,1.20
2023-02-16T05:33:31.937Z,0.90
2023-02-16T05:35:59.621Z,1.00
2023-02-16T05:38:27.419Z,1.20
2023-02-16T05:40:55.183Z,0.80
2023-02-16T05:43:22.869Z,1.20
2023-02-16T05:45:52.228Z,1.30
2023-02-16T05:48:20.049Z,0.90
2023-02-16T05:50:47.856Z,0.80
2023-02-16T05:53:15.609Z,1.10
2023-02-16T05:55:45.244Z,0.90
2023-02-16T05:58:12.948Z,0.80
2023-02-16T06:00:40.698Z,0.60
2023-02-16T06:03:09.790Z,1.20
2023-02-16T06:05:37.604Z,1.40
2023-02-16T06:08:05.734Z,1.30
2023-02-16T06:10:33.450Z,1.10
2023-02-16T06:13:01.125Z,1.30
2023-02-16T06:15:29.116Z,0.90
2023-02-16T06:17:56.798Z,0.90
2023-02-16T06:20:25.877Z,1.00
2023-02-16T06:22:53.673Z,1.30
2023-02-16T06:25:21.461Z,1.20
2023-02-16T06:27:49.961Z,1.40
2023-02-16T06:30:19.211Z,1.20
2023-02-16T06:32:47.323Z,1.50
2023-02-16T06:35:15.195Z,1.30
2023-02-16T06:37:44.360Z,1.20
2023-02-16T06:40:14.218Z,1.20
2023-02-16T06:42:42.305Z,1.10
2023-02-16T06:45:10.898Z,1.40
2023-02-16T06:47:39.129Z,1.50
2023-02-16T06:50:09.885Z,1.50
2023-02-16T06:52:38.181Z,1.30
2023-02-16T06:55:08.073Z,1.30
2023-02-16T06:57:35.800Z,1.50
2023-02-16T07:00:05.667Z,1.40
2023-02-16T07:02:33.487Z,1.40
2023-02-16T07:05:01.201Z,1.40
2023-02-16T07:07:29.124Z,1.40
2023-02-16T07:09:56.959Z,1.40
2023-02-16T07:12:26.057Z,2.10
2023-02-16T07:14:53.776Z,1.60
2023-02-16T07:17:21.751Z,1.40
2023-02-16T07:19:49.472Z,0.90
2023-02-16T07:22:17.654Z,1.60
2023-02-16T07:24:45.525Z,1.00
2023-02-16T07:27:13.219Z,1.60
2023-02-16T07:29:42.337Z,1.40
2023-02-16T07:32:10.222Z,1.40
2023-02-16T07:34:38.269Z,1.80
2023-02-16T07:37:06.211Z,1.80
2023-02-16T07:39:34.037Z,1.90
2023-02-16T07:42:01.833Z,1.70
2023-02-16T07:44:29.734Z,2.10
2023-02-16T07:46:58.808Z,2.30
2023-02-16T07:49:26.500Z,2.60
2023-02-16T07:51:54.248Z,2.90
2023-02-16T07:54:22.069Z,3.00
2023-02-16T07:56:49.783Z,3.10
2023-02-16T07:59:17.560Z,3.10
2023-02-16T08:01:45.321Z,3.10
2023-02-16T08:04:14.655Z,3.30
2023-02-16T08:06:42.385Z,3.90
2023-02-16T08:09:10.047Z,4.20
2023-02-16T08:11:37.753Z,4.70
2023-02-16T08:14:05.623Z,5.20
2023-02-16T08:16:33.369Z,5.60
2023-02-16T08:19:03.514Z,6.10
2023-02-16T08:21:34.441Z,6.60
2023-02-16T08:24:04.849Z,7.40
2023-02-16T08:26:36.720Z,7.60
2023-02-16T08:29:05.549Z,7.80
2023-02-16T08:31:36.536Z,8.10
2023-02-16T08:34:05.781Z,7.60
2023-02-16T08:36:36.987Z,8.50
2023-02-16T08:39:06.561Z,8.10
2023-02-16T08:41:36.228Z,8.10
2023-02-16T08:44:05.010Z,7.90
2023-02-16T08:46:34.202Z,7.80
2023-02-16T08:49:03.080Z,7.50
2023-02-16T08:51:34.527Z,7.20
2023-02-16T08:54:06.053Z,7.00
2023-02-16T08:56:34.393Z,7.70
2023-02-16T08:59:02.756Z,8.00
2023-02-16T09:01:32.915Z,8.50
2023-02-16T09:04:03.575Z,8.80
2023-02-16T09:06:33.517Z,9.20
2023-02-16T09:09:05.532Z,9.10
2023-02-16T09:11:35.654Z,9.40
2023-02-16T09:14:05.837Z,9.40
2023-02-16T09:16:38.932Z,9.20
2023-02-16T09:19:09.347Z,9.50
2023-02-16T09:21:39.616Z,9.30
2023-02-16T09:24:12.027Z,9.10
2023-02-16T09:26:43.464Z,9.40
2023-02-16T09:29:14.547Z,10.10
2023-02-16T09:31:45.996Z,10.50
2023-02-16T09:34:21.638Z,10.90
2023-02-16T09:36:51.973Z,10.90
2023-02-16T09:39:23.368Z,10.80
2023-02-16T09:42:06.401Z,10.60
2023-02-16T09:44:46.663Z,10.30
2023-02-16T09:47:23.075Z,10.50
2023-02-16T09:49:53.349Z,10.90
2023-02-16T09:52:28.680Z,11.40
2023-02-16T09:55:01.474Z,10.80
2023-02-16T09:57:42.061Z,10.10
2023-02-16T10:00:22.090Z,10.70
2023-02-16T10:02:55.642Z,10.80
2023-02-16T10:05:30.120Z,10.80
2023-02-16T10:08:01.991Z,11.30
2023-02-16T10:10:37.701Z,11.90
2023-02-16T10:13:13.037Z,11.90
2023-02-16T10:15:44.659Z,11.80
2023-02-16T10:18:22.212Z,11.80
2023-02-16T10:20:55.269Z,11.70
2023-02-16T10:23:35.608Z,10.90
2023-02-16T10:26:14.960Z,10.70
2023-02-16T10:28:47.223Z,11.30
2023-02-16T10:31:21.337Z,11.30
2023-02-16T10:34:01.692Z,11.60
2023-02-16T10:36:41.228Z,11.50
2023-02-16T10:39:16.865Z,11.70
2023-02-16T10:41:51.890Z,11.30
2023-02-16T10:44:24.796Z,11.00
2023-02-16T10:46:58.336Z,11.00
2023-02-16T10:49:28.207Z,11.40
2023-02-16T10:51:57.507Z,11.60
2023-02-16T10:54:28.714Z,11.60
2023-02-16T10:57:01.002Z,12.10
2023-02-16T10:59:38.136Z,12.40
2023-02-16T11:02:19.138Z,12.40
2023-02-16T11:04:48.613Z,12.20
2023-02-16T11:07:18.711Z,11.20
2023-02-16T11:09:48.685Z,12.00
2023-02-16T11:12:29.775Z,11.70
2023-02-16T11:15:01.101Z,11.40
2023-02-16T11:17:28.953Z,11.00
2023-02-16T11:20:01.955Z,11.00
2023-02-16T11:22:36.212Z,11.60
2023-02-16T11:25:25.657Z,11.20
2023-02-16T11:27:57.995Z,12.10
2023-02-16T11:30:32.528Z,11.70
2023-02-16T11:33:02.599Z,11.60
2023-02-16T11:35:32.709Z,11.60
2023-02-16T11:38:01.010Z,11.50
2023-02-16T11:40:31.979Z,10.90
2023-02-16T11:43:03.068Z,11.00
2023-02-16T11:45:34.726Z,11.40
2023-02-16T11:48:05.740Z,11.40
2023-02-16T11:50:36.662Z,11.80
2023-02-16T11:53:16.630Z,11.60
2023-02-16T11:55:46.739Z,11.50
2023-02-16T11:58:19.424Z,11.60
2023-02-16T12:00:58.625Z,11.80
2023-02-16T12:03:49.909Z,11.60
2023-02-16T12:06:38.414Z,12.10
2023-02-16T12:09:20.654Z,12.10
2023-02-16T12:11:58.646Z,12.10
2023-02-16T12:14:41.651Z,12.60
2023-02-16T12:17:22.838Z,12.50
2023-02-16T12:20:00.729Z,12.60
2023-02-16T12:22:34.344Z,13.30
2023-02-16T12:25:22.337Z,13.10
2023-02-16T12:27:54.976Z,13.50
2023-02-16T12:30:37.798Z,13.50
2023-02-16T12:33:20.788Z,13.10
2023-02-16T12:36:01.787Z,13.30
2023-02-16T12:38:38.370Z,13.00
2023-02-16T12:41:18.203Z,12.90
2023-02-16T12:43:49.681Z,12.70
2023-02-16T12:46:24.156Z,12.40
2023-02-16T12:48:55.939Z,12.40
2023-02-16T12:51:29.012Z,12.40
2023-02-16T12:54:02.574Z,12.20
2023-02-16T12:56:38.230Z,12.20
2023-02-16T12:59:18.392Z,12.30
2023-02-16T13:01:50.817Z,12.60
2023-02-16T13:04:23.574Z,12.90
2023-02-16T13:06:58.818Z,12.90
2023-02-16T13:09:35.921Z,12.60
2023-02-16T13:12:12.077Z,13.10
2023-02-16T13:14:43.446Z,13.00
2023-02-16T13:17:16.943Z,13.30
2023-02-16T13:19:46.233Z,14.30
2023-02-16T13:22:41.573Z,14.50
2023-02-16T13:25:28.480Z,15.20
2023-02-16T13:28:03.870Z,14.70
2023-02-16T13:30:45.803Z,14.30
2023-02-16T13:33:28.165Z,14.00
2023-02-16T13:36:21.414Z,13.90
2023-02-16T13:39:13.188Z,13.90
2023-02-16T13:42:05.133Z,13.80
2023-02-16T13:44:39.794Z,13.70
2023-02-16T13:47:08.695Z,13.50
2023-02-16T13:49:43.154Z,13.40
2023-02-16T13:52:12.712Z,13.40
2023-02-16T13:54:43.558Z,13.30
2023-02-16T13:57:13.285Z,13.30
2023-02-16T14:00:00.064Z,13.50
2023-02-16T14:02:54.462Z,13.30
2023-02-16T14:05:30.973Z,13.30
2023-02-16T14:08:16.853Z,13.30
2023-02-16T14:10:59.376Z,13.60
2023-02-16T14:13:30.435Z,13.60
2023-02-16T14:16:00.163Z,14.00
2023-02-16T14:18:32.654Z,13.90
2023-02-16T14:21:07.070Z,14.00
2023-02-16T14:23:36.248Z,14.10
2023-02-16T14:26:06.549Z,13.60
2023-02-16T14:29:09.373Z,13.90
2023-02-16T14:31:45.318Z,13.90
2023-02-16T14:34:16.386Z,13.50
2023-02-16T14:37:17.326Z,13.60
2023-02-16T14:40:06.958Z,13.70
2023-02-16T14:42:36.736Z,13.70
2023-02-16T14:45:38.274Z,13.40
2023-02-16T14:48:21.455Z,13.40
2023-02-16T14:51:11.843Z,13.30
2023-02-16T14:54:10.186Z,13.20
2023-02-16T14:56:42.885Z,13.40
2023-02-16T14:59:24.511Z,13.30
2023-02-16T15:01:52.443Z,13.20
2023-02-16T15:04:29.329Z,13.10
2023-02-16T15:06:58.203Z,13.20
2023-02-16T15:09:30.956Z,13.00
2023-02-16T15:12:21.459Z,13.10
2023-02-16T15:14:51.645Z,13.20
2023-02-16T15:17:28.540Z,12.90
2023-02-16T15:19:59.263Z,13.40
2023-02-16T15:22:28.653Z,13.00
2023-02-16T15:24:58.368Z,12.90
2023-02-16T15:27:29.064Z,13.10
2023-02-16T15:30:10.341Z,12.90
2023-02-16T15:32:38.585Z,12.90
2023-02-16T15:35:22.682Z,12.80
2023-02-16T15:38:04.200Z,13.10
2023-02-16T15:40:35.061Z,12.70
2023-02-16T15:43:10.970Z,12.80
2023-02-16T15:45:39.494Z,12.10
2023-02-16T15:48:26.491Z,12.60
2023-02-16T15:50:56.220Z,12.70
2023-02-16T15:53:34.797Z,12.60
2023-02-16T15:56:06.965Z,12.30
2023-02-16T15:58:36.573Z,12.60
2023-02-16T16:01:04.970Z,12.40
2023-02-16T16:03:32.925Z,12.10
2023-02-16T16:06:04.828Z,12.60
2023-02-16T16:08:33.471Z,12.30
2023-02-16T16:11:01.786Z,12.20
2023-02-16T16:13:31.155Z,12.30
2023-02-16T16:16:04.590Z,12.00
2023-02-16T16:18:39.081Z,12.20
2023-02-16T16:21:18.772Z,12.20
2023-02-16T16:24:01.234Z,12.20
2023-02-16T16:26:32.024Z,12.00
2023-02-16T16:29:00.342Z,12.20
2023-02-16T16:31:43.465Z,12.00
2023-02-16T16:34:30.896Z,12.00
2023-02-16T16:37:02.505Z,12.10
2023-02-16T16:39:31.488Z,12.00
2023-02-16T16:42:18.281Z,12.00
2023-02-16T16:44:54.921Z,12.40
2023-02-16T16:47:27.694Z,11.90
2023-02-16T16:49:58.106Z,11.80
2023-02-16T16:52:41.469Z,12.00
2023-02-16T16:55:34.738Z,11.80
2023-02-16T16:58:05.434Z,11.90
2023-02-16T17:00:36.020Z,11.80
2023-02-16T17:03:06.867Z,11.90
2023-02-16T17:05:35.783Z,11.80
2023-02-16T17:08:03.485Z,11.90
2023-02-16T17:10:31.334Z,11.60
2023-02-16T17:13:00.555Z,11.70
2023-02-16T17:15:36.220Z,11.90
2023-02-16T17:18:06.128Z,11.80
2023-02-16T17:20:33.917Z,11.70
2023-02-16T17:23:04.543Z,11.80
2023-02-16T17:25:34.632Z,11.60
2023-02-16T17:28:02.865Z,11.80
2023-02-16T17:30:31.126Z,11.70
2023-02-16T17:32:59.154Z,11.40
2023-02-16T17:35:28.871Z,11.40
2023-02-16T17:37:56.626Z,11.30
2023-02-16T17:40:25.777Z,11.50
2023-02-16T17:42:53.689Z,11.30
2023-02-16T17:45:22.864Z,11.30
2023-02-16T17:47:52.905Z,11.10
2023-02-16T17:50:21.334Z,11.10
2023-02-16T17:52:50.445Z,11.30
2023-02-16T17:55:18.443Z,11.10
2023-02-16T17:57:46.372Z,11.20
2023-02-16T18:00:18.996Z,11.00
2023-02-16T18:02:46.936Z,11.10
2023-02-16T18:05:14.829Z,11.40
2023-02-16T18:07:42.657Z,11.10
2023-02-16T18:10:19.362Z,11.10
2023-02-16T18:12:47.233Z,11.20
2023-02-16T18:15:15.139Z,11.20
2023-02-16T18:17:42.858Z,11.00
2023-02-16T18:20:16.160Z,11.30
2023-02-16T18:22:44.018Z,11.30
2023-02-16T18:25:13.239Z,11.10
2023-02-16T18:27:41.018Z,10.90
2023-02-16T18:30:10.655Z,10.70
2023-02-16T18:32:38.754Z,11.10
2023-02-16T18:35:07.661Z,11.20
2023-02-16T18:37:35.572Z,10.90
2023-02-16T18:40:03.780Z,10.70
2023-02-16T18:42:33.416Z,11.10
2023-02-16T18:45:01.314Z,11.10
2023-02-16T18:47:29.329Z,11.00
2023-02-16T18:49:57.186Z,11.00
2023-02-16T18:52:25.081Z,10.70
2023-02-16T18:54:52.937Z,11.00
2023-02-16T18:57:22.624Z,10.90
2023-02-16T18:59:51.887Z,11.10
2023-02-16T19:02:19.609Z,11.20
2023-02-16T19:04:47.933Z,10.90
2023-02-16T19:07:15.670Z,11.00
2023-02-16T19:09:43.616Z,11.10
2023-02-16T19:12:11.575Z,11.00
2023-02-16T19:14:39.503Z,11.20
2023-02-16T19:17:08.659Z,11.00
2023-02-16T19:19:36.855Z,10.80
2023-02-16T19:22:04.802Z,11.10
2023-02-16T19:24:32.969Z,11.10
2023-02-16T19:27:00.760Z,11.20
2023-02-16T19:29:28.706Z,11.20
2023-02-16T19:31:56.664Z,11.10
2023-02-16T19:34:25.988Z,11.10
2023-02-16T19:36:53.996Z,11.30
2023-02-16T19:39:21.960Z,11.10
2023-02-16T19:41:49.702Z,11.10
2023-02-16T19:44:17.526Z,11.00
2023-02-16T19:46:45.582Z,11.20
2023-02-16T19:49:15.068Z,11.00
2023-02-16T19:51:46.207Z,11.00
2023-02-16T19:54:14.147Z,11.10
2023-02-16T19:56:42.330Z,11.00
2023-02-16T19:59:10.463Z,11.20
2023-02-16T20:01:38.574Z,11.30
2023-02-16T20:04:06.332Z,11.20
2023-02-16T20:06:37.210Z,11.00
2023-02-16T20:09:06.891Z,10.70
2023-02-16T20:11:35.181Z,11.30
2023-02-16T20:14:03.196Z,11.20
2023-02-16T20:16:31.561Z,11.30
2023-02-16T20:19:00.247Z,11.20
2023-02-16T20:21:30.663Z,11.20
2023-02-16T20:24:00.660Z,11.30
2023-02-16T20:26:34.339Z,11.30
2023-02-16T20:29:02.769Z,11.40
2023-02-16T20:31:33.816Z,10.70
2023-02-16T20:34:02.581Z,11.30
2023-02-16T20:36:31.477Z,11.50
2023-02-16T20:38:59.351Z,11.40
2023-02-16T20:41:27.387Z,11.40
2023-02-16T20:43:56.493Z,11.20
2023-02-16T20:46:24.814Z,11.20
2023-02-16T20:48:53.848Z,11.20
2023-02-16T20:51:22.369Z,11.30
2023-02-16T20:53:50.257Z,11.10
2023-02-16T20:56:21.366Z,11.10
2023-02-16T20:58:50.853Z,11.10
2023-02-16T21:01:22.407Z,11.10
2023-02-16T21:03:50.717Z,11.20
2023-02-16T21:06:19.617Z,11.10
2023-02-16T21:08:48.083Z,11.00
2023-02-16T21:11:16.454Z,11.00
2023-02-16T21:13:44.543Z,11.30
2023-02-16T21:16:13.493Z,11.10
2023-02-16T21:18:43.291Z,11.00
2023-02-16T21:21:15.378Z,11.10
2023-02-16T21:23:43.609Z,11.30
2023-02-16T21:26:11.440Z,11.00
2023-02-16T21:28:39.616Z,11.20
2023-02-16T21:31:09.853Z,11.20
2023-02-16T21:33:38.571Z,10.90
2023-02-16T21:36:10.563Z,11.20
2023-02-16T21:38:40.470Z,10.90
2023-02-16T21:41:24.952Z,11.40
2023-02-16T21:43:58.470Z,11.30
2023-02-16T21:46:26.549Z,11.20
2023-02-16T21:48:54.999Z,11.30
2023-02-16T21:51:26.590Z,11.40
2023-02-16T21:53:54.891Z,11.30
2023-02-16T21:56:30.423Z,11.30
2023-02-16T21:58:58.462Z,11.20
2023-02-16T22:01:28.440Z,11.10
2023-02-16T22:03:58.491Z,11.00
2023-02-16T22:06:29.229Z,10.90
2023-02-16T22:08:57.116Z,11.10
2023-02-16T22:11:25.033Z,11.00
2023-02-16T22:13:56.953Z,10.90
2023-02-16T22:16:26.106Z,11.10
2023-02-16T22:18:58.117Z,11.00
2023-02-16T22:21:28.326Z,11.00
2023-02-16T22:23:56.494Z,11.00
2023-02-16T22:26:26.701Z,10.80
2023-02-16T22:28:54.910Z,10.90
2023-02-16T22:31:24.329Z,11.10
2023-02-16T22:33:56.535Z,11.00
2023-02-16T22:36:24.581Z,11.30
2023-02-16T22:38:54.002Z,11.00
2023-02-16T22:41:22.553Z,11.00
2023-02-16T22:43:53.697Z,11.10
2023-02-16T22:46:21.670Z,11.00
2023-02-16T22:48:49.468Z,10.90
2023-02-16T22:51:18.324Z,10.70
2023-02-16T22:53:46.655Z,10.90
2023-02-16T22:56:19.199Z,10.90
2023-02-16T22:58:47.354Z,11.30
2023-02-16T23:01:17.096Z,10.80
2023-02-16T23:03:47.108Z,11.10
2023-02-16T23:06:16.164Z,11.10
2023-02-16T23:08:45.037Z,11.10
2023-02-16T23:11:13.139Z,10.80
2023-02-16T23:13:42.184Z,11.00
2023-02-16T23:16:13.224Z,10.90
2023-02-16T23:18:41.326Z,11.00
2023-02-16T23:21:11.222Z,11.00
2023-02-16T23:23:38.936Z,10.90
2023-02-16T23:26:07.896Z,10.80
2023-02-16T23:28:36.475Z,10.60
2023-02-16T23:31:05.779Z,11.30
2023-02-16T23:33:34.001Z,11.10
2023-02-16T23:36:01.971Z,10.90
2023-02-16T23:38:29.762Z,11.00
2023-02-16T23:40:58.614Z,10.40
2023-02-16T23:43:27.037Z,11.10
2023-02-16T23:45:54.987Z,10.80
2023-02-16T23:48:24.787Z,11.20
2023-02-16T23:50:52.901Z,11.00
2023-02-16T23:53:21.765Z,11.20
2023-02-16T23:55:58.327Z,11.00
2023-02-16T23:58:27.504Z,11.20
